Monday, March 02, 2015
03:33 UTC
  |  Log In   |  Register Free
Airport Search:

Coleman Municipal Airport
(KCOM)

Coleman Municipal Airport Diagram
No Airport Diagram Available

FAA data valid effective January 08, 2015 - March 05, 2015 (unless otherwise noted).

 
 
 
 
 
 
 
 
 
 
 
 
 
 

Current Aviation Weather for Coleman Municipal Airport (KCOM)

The most recent METAR observation for KCOM was updated at: 0308
METAR Summary (Translated METAR)
KCOM
020255Z AUTO 01007KT 3SM UP OVC003 01/01 A3034 RMK AO2 T00070007
KBWD
020255Z AUTO 36005KT 5SM BR OVC005 01/01 A3034 RMK AO2
(23 nm SE from KCOM)
KABI
020252Z 01006KT 5SM BR BKN004 BKN010 OVC015 00/M01 A3036 RMK AO2 SLP290 I1000 I3000 T00001006 53019
(37 nm NW from KCOM)
TAF Summary (Translated TAF)
KABI
(37 nm NW from KCOM)
012233Z 0123/0218 01008KT 1SM -FZDZ BR OVC002
  Airport Weather Conditions for KCOM

 Current Weather at COM
33° F
Fog/Mist
North winds at 9.2 mph
COM NOAA Radar

Pressure: 30.32 in
Humidity: 100%
Wind: North at 9.2 MPH (8 KT)
Dew Point: 33.3°F
Visibility: 4.00 mi


Airport Weather Forecast for KCOM

Translated METAR and TAF for KCOM
Translated METAR for KCOM (0332 UTC 02 March 2015)
found at http://aviationweather.gov/adds/metars/
 
METAR text: KCOM 020315Z AUTO 02006KT 4SM UP OVC003 01/01 A3034 RMK AO2 T00070007
Conditions at: KCOM (COLEMAN MUNI , TX, US) observed 0315 UTC 02 March 2015
Temperature: 0.7°C (33°F)
Dewpoint: 0.7°C (33°F) [RH = 100%]
Pressure (altimeter): 30.34 inches Hg (1027.5 mb)
Winds: from the NNE (20 degrees) at 7 MPH (6 knots; 3.1 m/s)
Visibility: 4 miles (6 km)
Ceiling: 300 feet AGL
Clouds: overcast cloud deck at 300 feet AGL
Weather: UP  (unknown precipitation)
Translated TAF for KCOM

There is no translated TAF available for this airport

Find All Airport Services Find A Hotel Find A Rental Car Find A Golf Course Find A Restaurant $100 Hamburger



FBO's on the Field
FBO Company Facility Photos Services Transportation Aviation Fuel Prices: Prices include tax
Catering Weather Repair Courtesy Rental Type 100LL JetA JetA+ MOGAS 8087
 
Add another FBO Facility Photos Catering Weather Repair Courtesy Rental Type 100LL JetA JetA+ MOGAS 8087
Services Transportation Aviation Fuel Prices: Prices include tax
There are no FBO's currently reporting fuel at COM. List your FBO now


model-print
model-print
model-print
model-print